Terminal Aerodrome Forecast
Issued by NWS Albany, NY

Home | Current Version | Previous Version | Text Only | Print | Product List | Glossary On
Versions: 1 2 3 4 5 6 7 8 9 10 11 12 13 14 15 16 17 18 19 20 21 22 23 24 25
000
FTUS41 KALY 222300
TAFGFL
TAF
KGFL 222320Z 2300/2324 VRB03KT P6SM OVC040
      TEMPO 2300/2303 4SM -RADZ SCT006 OVC030
     FM230300 VRB03KT 6SM BR VCSH SCT006 OVC025
      TEMPO 2303/2306 4SM -DZ BR BKN020
     FM230600 VRB03KT 3SM BR OVC020
     FM231400 06006KT P6SM SCT020 BKN025
      AMD NOT SKED=

USA.gov is the U.S. government's official web portal to all federal, state and local government web resources and services.